Terminal Aerodrome Forecast
Issued by NWS

Home | Current Version | Previous Version | Text Only | Print | Product List | Glossary On
Versions: 1 2 3 4 5 6 7 8 9 10 11 12 13
000
FTUS43 KICT 281740
TAFSLN
TAF
KSLN 281740Z 2818/2918 21013KT P6SM BKN300=

USA.gov is the U.S. government's official web portal to all federal, state and local government web resources and services.